Time;durP1;ratioP1;P1;durP2;ratioP2;P2;SDS_P1;SDS_P2;PMS_P1;PMS_P2;Temp;Humidity;BMP_temperature;BMP_pressure;BME280_temperature;BME280_humidity;BME280_pressure;Samples;Min_cycle;Max_cycle;Signal;HPM_P1;HPM_P2
2022/10/25 00:01:31;;;;;;;33.17;18.10;;;19.50;99.90;;;;;;5049728;28;20151;-75
2022/10/25 00:03:58;;;;;;;31.25;17.13;;;19.50;99.90;;;;;;5069079;28;20411;-78
2022/10/25 00:06:26;;;;;;;29.60;16.25;;;19.50;99.90;;;;;;5051372;28;20063;-77
2022/10/25 00:08:54;;;;;;;39.90;16.95;;;19.50;99.90;;;;;;5068675;28;20051;-77
2022/10/25 00:11:24;;;;;;;42.22;17.27;;;19.60;99.90;;;;;;5067128;28;20741;-75
2022/10/25 00:13:54;;;;;;;31.67;16.20;;;19.50;99.90;;;;;;5050722;28;20070;-75
2022/10/25 00:16:30;;;;;;;31.88;15.80;;;19.50;99.90;;;;;;5068140;28;20052;-75
2022/10/25 00:18:57;;;;;;;25.90;16.98;;;19.60;99.90;;;;;;5050557;28;20056;-75
2022/10/25 00:21:25;;;;;;;29.75;15.55;;;19.60;99.90;;;;;;5050492;28;20047;-75
2022/10/25 00:23:53;;;;;;;27.30;16.63;;;19.60;99.90;;;;;;5067328;28;20114;-74
2022/10/25 00:26:21;;;;;;;34.20;15.57;;;19.60;99.90;;;;;;5068329;28;20048;-75
2022/10/25 00:28:53;;;;;;;29.58;16.10;;;19.70;99.90;;;;;;5050291;28;20481;-75
2022/10/25 00:31:22;;;;;;;25.05;14.82;;;19.70;99.90;;;;;;5066900;28;20122;-75
2022/10/25 00:33:50;;;;;;;27.75;16.83;;;19.70;99.90;;;;;;5066628;28;20049;-75
2022/10/25 00:36:23;;;;;;;26.55;15.50;;;19.70;99.90;;;;;;5066788;28;20049;-76
2022/10/25 00:38:52;;;;;;;29.20;15.48;;;19.70;99.90;;;;;;5050414;28;20045;-75
2022/10/25 00:41:22;;;;;;;26.83;14.45;;;19.70;99.90;;;;;;5068934;28;20055;-75
2022/10/25 00:43:53;;;;;;;25.20;15.27;;;19.70;99.90;;;;;;5053831;28;20497;-75
2022/10/25 00:46:22;;;;;;;21.90;14.13;;;19.80;99.90;;;;;;5070608;28;20486;-74
2022/10/25 00:48:55;;;;;;;22.33;14.60;;;19.80;99.90;;;;;;5045471;28;20414;-75
2022/10/25 00:51:29;;;;;;;20.30;13.07;;;19.80;99.90;;;;;;5050100;28;20510;-75
2022/10/25 00:53:57;;;;;;;22.27;12.27;;;19.80;99.90;;;;;;5051912;28;20083;-75
2022/10/25 00:56:32;;;;;;;25.73;13.93;;;19.80;99.90;;;;;;5050326;28;20061;-75
2022/10/25 00:59:06;;;;;;;23.17;13.63;;;19.80;99.90;;;;;;5050391;28;20086;-75
2022/10/25 01:01:35;;;;;;;19.95;12.43;;;19.80;99.90;;;;;;5049759;28;20122;-75
2022/10/25 01:04:07;;;;;;;22.70;11.32;;;19.70;99.90;;;;;;5033506;28;20048;-75
2022/10/25 01:06:41;;;;;;;26.25;14.75;;;19.70;99.90;;;;;;5050094;28;20057;-75
2022/10/25 01:09:12;;;;;;;23.02;13.63;;;19.70;99.90;;;;;;5033521;28;20049;-75
2022/10/25 01:11:39;;;;;;;22.98;12.68;;;19.60;99.90;;;;;;5049716;28;20037;-75
2022/10/25 01:14:09;;;;;;;33.63;15.55;;;19.60;99.90;;;;;;5066703;28;20127;-75
2022/10/25 01:17:09;;;;;;;41.65;14.27;;;19.60;99.90;;;;;;5049506;28;20070;-75
2022/10/25 01:20:01;;;;;;;25.73;13.23;;;19.50;99.90;;;;;;5045892;28;20110;-74
2022/10/25 01:22:49;;;;;;;40.47;13.15;;;19.50;99.90;;;;;;5050927;28;20495;-75
2022/10/25 01:25:23;;;;;;;50.15;15.13;;;19.40;99.90;;;;;;5033262;28;20522;-76
2022/10/25 01:27:54;;;;;;;29.95;13.55;;;19.30;99.90;;;;;;5049202;28;20073;-75
2022/10/25 01:30:53;;;;;;;39.90;12.35;;;19.30;99.90;;;;;;5052260;28;20040;-75
2022/10/25 01:33:34;;;;;;;29.58;12.32;;;19.20;99.90;;;;;;5032269;28;20057;-75
2022/10/25 01:36:01;;;;;;;38.75;13.35;;;19.10;99.90;;;;;;5049495;28;20086;-76
2022/10/25 01:39:10;;;;;;;20.25;11.18;;;19.10;99.90;;;;;;5055063;28;20052;-75
2022/10/25 01:41:56;;;;;;;22.73;13.23;;;18.90;99.90;;;;;;5043517;28;20049;-75
2022/10/25 01:44:31;;;;;;;28.00;11.88;;;19.00;99.90;;;;;;5049539;28;20057;-75
2022/10/25 01:47:12;;;;;;;62.92;16.15;;;19.00;99.90;;;;;;5032940;28;20089;-75
2022/10/25 01:50:11;;;;;;;49.72;14.73;;;18.90;99.90;;;;;;5032490;28;20084;-76
2022/10/25 01:52:39;;;;;;;18.85;11.75;;;18.80;99.90;;;;;;5049518;28;20080;-75
2022/10/25 01:55:11;;;;;;;19.15;11.88;;;18.90;99.90;;;;;;5033104;28;20147;-75
2022/10/25 01:57:57;;;;;;;15.38;11.27;;;18.90;99.90;;;;;;5049175;28;20503;-75
2022/10/25 02:00:25;;;;;;;18.92;9.27;;;18.90;99.90;;;;;;5032390;28;20564;-75
2022/10/25 02:02:59;;;;;;;16.15;9.15;;;18.90;99.90;;;;;;5032398;28;20388;-75
2022/10/25 02:05:46;;;;;;;16.17;9.55;;;19.00;99.90;;;;;;5049058;28;20072;-76
2022/10/25 02:08:32;;;;;;;17.50;9.32;;;18.90;99.90;;;;;;5048967;28;20070;-75
2022/10/25 02:11:22;;;;;;;24.25;9.18;;;18.90;99.90;;;;;;5048735;28;20450;-75
2022/10/25 02:14:05;;;;;;;11.73;7.65;;;18.90;99.90;;;;;;5031929;28;20053;-74
2022/10/25 02:16:42;;;;;;;11.88;8.52;;;18.90;99.90;;;;;;5048573;28;20048;-75
2022/10/25 02:19:14;;;;;;;10.10;8.40;;;18.90;99.90;;;;;;5048566;28;20491;-76
2022/10/25 02:21:45;;;;;;;9.98;7.35;;;18.80;99.90;;;;;;5057744;28;20040;-75
2022/10/25 02:24:17;;;;;;;9.85;6.85;;;18.80;99.90;;;;;;5075481;28;20517;-74
2022/10/25 02:26:47;;;;;;;9.70;6.68;;;18.80;99.90;;;;;;5051980;28;20126;-75
2022/10/25 02:29:22;;;;;;;8.25;5.63;;;18.70;99.90;;;;;;5036012;28;20085;-75
2022/10/25 02:31:50;;;;;;;7.82;5.68;;;18.70;99.90;;;;;;5051895;28;20048;-75
2022/10/25 02:34:18;;;;;;;8.00;5.90;;;18.70;99.90;;;;;;5068130;28;20049;-75
2022/10/25 02:36:50;;;;;;;8.85;5.97;;;18.70;99.90;;;;;;5068228;28;20052;-75
2022/10/25 02:39:19;;;;;;;36.30;8.88;;;18.60;99.90;;;;;;5051503;28;20044;-75
2022/10/25 02:41:46;;;;;;;9.75;6.75;;;18.60;99.90;;;;;;5051420;28;20044;-75
2022/10/25 02:44:16;;;;;;;32.28;8.13;;;18.60;99.90;;;;;;5068278;28;20088;-75
2022/10/25 02:46:44;;;;;;;40.13;9.68;;;18.60;99.90;;;;;;5067899;28;20466;-75
2022/10/25 02:49:11;;;;;;;63.03;10.80;;;18.50;99.90;;;;;;5051271;28;20045;-75
2022/10/25 02:51:39;;;;;;;20.45;6.95;;;18.50;99.90;;;;;;5050786;28;20071;-75
2022/10/25 02:54:07;;;;;;;10.60;5.47;;;18.50;99.90;;;;;;5051307;28;20048;-75
2022/10/25 02:56:34;;;;;;;17.77;7.65;;;18.40;99.90;;;;;;5067729;28;20151;-75
2022/10/25 02:59:01;;;;;;;73.55;10.95;;;18.40;99.90;;;;;;5069269;28;20143;-74
2022/10/25 03:01:29;;;;;;;30.17;8.23;;;18.30;99.90;;;;;;5064076;28;20044;-75
2022/10/25 03:03:57;;;;;;;17.92;7.15;;;18.30;99.90;;;;;;5080401;28;20044;-75
2022/10/25 03:06:24;;;;;;;24.60;8.70;;;18.20;99.90;;;;;;5069132;28;20044;-74
2022/10/25 03:08:52;;;;;;;21.20;8.23;;;18.20;99.90;;;;;;5051000;28;20497;-75
2022/10/25 03:11:20;;;;;;;13.85;7.20;;;18.20;99.90;;;;;;5069039;28;20040;-75
2022/10/25 03:13:47;;;;;;;12.32;7.57;;;18.20;99.90;;;;;;5050961;28;20596;-75
2022/10/25 03:16:15;;;;;;;16.52;7.88;;;18.20;99.90;;;;;;5067388;28;20123;-75
2022/10/25 03:18:42;;;;;;;32.17;10.65;;;18.20;99.90;;;;;;5068974;28;20080;-75
2022/10/25 03:21:10;;;;;;;15.18;8.77;;;18.20;99.90;;;;;;5067641;28;20044;-75
2022/10/25 03:23:37;;;;;;;13.18;9.20;;;18.30;99.90;;;;;;5050442;28;20525;-75
2022/10/25 03:26:05;;;;;;;67.60;13.95;;;18.30;99.90;;;;;;5067982;28;20060;-75
2022/10/25 03:28:32;;;;;;;22.65;10.25;;;18.30;99.90;;;;;;5067476;28;20048;-75
2022/10/25 03:31:00;;;;;;;26.05;10.07;;;18.30;99.90;;;;;;5046990;28;20049;-75
2022/10/25 03:33:28;;;;;;;21.52;10.02;;;18.30;99.90;;;;;;5048655;28;20072;-75
2022/10/25 03:35:56;;;;;;;16.80;9.60;;;18.30;99.90;;;;;;5030490;28;20053;-75
2022/10/25 03:38:23;;;;;;;24.20;10.85;;;18.40;99.90;;;;;;5030601;28;20049;-75
2022/10/25 03:40:52;;;;;;;19.17;10.52;;;18.30;99.90;;;;;;5047664;28;20837;-75
2022/10/25 03:43:20;;;;;;;21.23;11.07;;;18.30;99.90;;;;;;5047367;28;20130;-76
2022/10/25 03:45:53;;;;;;;23.55;11.20;;;18.40;99.90;;;;;;5047210;28;20053;-75
2022/10/25 03:48:21;;;;;;;16.13;10.05;;;18.40;99.90;;;;;;5030833;28;20147;-75
2022/10/25 03:50:48;;;;;;;23.42;12.25;;;18.40;99.90;;;;;;5061764;28;20528;-75
2022/10/25 03:53:16;;;;;;;23.40;11.77;;;18.40;99.90;;;;;;5050495;28;20147;-76
2022/10/25 03:55:43;;;;;;;44.67;16.17;;;18.30;99.90;;;;;;5050513;28;20052;-76
2022/10/25 03:58:12;;;;;;;19.63;11.98;;;18.30;99.90;;;;;;5066495;28;20141;-76
2022/10/25 04:00:39;;;;;;;24.30;14.75;;;18.40;99.90;;;;;;5030511;28;20495;-75
2022/10/25 04:03:09;;;;;;;20.95;11.88;;;18.40;99.90;;;;;;5046806;28;20056;-76
2022/10/25 04:05:37;;;;;;;20.70;14.05;;;18.40;99.90;;;;;;5063262;28;20037;-76
2022/10/25 04:08:05;;;;;;;26.25;14.43;;;18.40;99.90;;;;;;5063829;28;20053;-75
2022/10/25 04:10:33;;;;;;;33.78;14.60;;;18.40;99.90;;;;;;5047343;28;20036;-75
2022/10/25 04:13:01;;;;;;;26.63;14.70;;;18.40;99.90;;;;;;5048248;28;20133;-75
2022/10/25 04:15:28;;;;;;;35.33;15.15;;;18.40;99.90;;;;;;5063433;28;20076;-75
2022/10/25 04:17:56;;;;;;;27.17;14.68;;;18.40;99.90;;;;;;5066564;28;20071;-75
2022/10/25 04:20:24;;;;;;;31.75;15.63;;;18.40;99.90;;;;;;5057805;28;20084;-75
2022/10/25 04:22:54;;;;;;;36.33;15.38;;;18.40;99.90;;;;;;5034306;28;20053;-76
2022/10/25 04:25:25;;;;;;;40.72;14.85;;;18.40;99.90;;;;;;5034074;28;20152;-75
2022/10/25 04:27:53;;;;;;;63.78;17.60;;;18.30;99.90;;;;;;5050915;28;20171;-76
2022/10/25 04:30:21;;;;;;;25.10;13.30;;;18.30;99.90;;;;;;5050862;28;20403;-76
2022/10/25 04:32:49;;;;;;;57.97;18.63;;;18.30;99.90;;;;;;5034315;28;20506;-76
2022/10/25 04:35:16;;;;;;;35.83;15.25;;;18.30;99.90;;;;;;5051597;28;20060;-75
2022/10/25 04:37:44;;;;;;;26.50;15.93;;;18.40;99.90;;;;;;5051344;28;20052;-75
2022/10/25 04:40:12;;;;;;;32.03;17.55;;;18.40;99.90;;;;;;5050163;28;20052;-76
2022/10/25 04:42:40;;;;;;;30.20;17.52;;;18.40;99.90;;;;;;5033364;28;20045;-75
2022/10/25 04:45:08;;;;;;;30.40;15.95;;;18.40;99.90;;;;;;5066773;28;20267;-75
2022/10/25 04:47:36;;;;;;;28.77;16.33;;;18.40;99.90;;;;;;5033490;28;20047;-76
2022/10/25 04:50:04;;;;;;;29.67;17.95;;;18.40;99.90;;;;;;5051667;28;20052;-75
2022/10/25 04:52:32;;;;;;;28.30;14.63;;;18.40;99.90;;;;;;5033897;28;20049;-76
2022/10/25 04:55:00;;;;;;;34.25;17.65;;;18.40;99.90;;;;;;5017264;28;20045;-75
2022/10/25 04:57:27;;;;;;;29.52;15.55;;;18.40;99.90;;;;;;5049946;28;20108;-76
2022/10/25 04:59:56;;;;;;;27.02;16.33;;;18.40;99.90;;;;;;5033310;28;20049;-75
2022/10/25 05:02:23;;;;;;;31.20;16.45;;;18.50;99.90;;;;;;5066806;28;20379;-75
2022/10/25 05:04:51;;;;;;;30.05;17.85;;;18.50;99.90;;;;;;5033466;28;20542;-75
2022/10/25 05:07:20;;;;;;;24.05;14.35;;;18.40;99.90;;;;;;5045341;28;20056;-75
2022/10/25 05:09:47;;;;;;;33.47;18.83;;;18.50;99.90;;;;;;5049073;28;20122;-75
2022/10/25 05:12:15;;;;;;;29.10;16.85;;;18.50;99.90;;;;;;5049856;28;20060;-76
2022/10/25 05:14:43;;;;;;;29.60;17.85;;;18.40;99.90;;;;;;5032724;28;20102;-75
2022/10/25 05:17:11;;;;;;;32.45;17.60;;;18.40;99.90;;;;;;5049192;28;20044;-75
2022/10/25 05:19:38;;;;;;;31.10;16.67;;;18.40;99.90;;;;;;5049132;28;20040;-75
2022/10/25 05:22:06;;;;;;;31.48;17.17;;;18.30;99.90;;;;;;5033099;28;20099;-75
2022/10/25 05:24:34;;;;;;;29.95;16.23;;;18.30;99.90;;;;;;5061290;28;20060;-77
2022/10/25 05:27:03;;;;;;;35.58;14.93;;;18.30;99.90;;;;;;5079036;28;20441;-75
2022/10/25 05:29:31;;;;;;;35.67;17.75;;;18.30;99.90;;;;;;5066764;28;20054;-75
2022/10/25 05:31:58;;;;;;;30.20;17.40;;;18.40;99.90;;;;;;5075813;28;20402;-75
2022/10/25 05:34:26;;;;;;;27.45;16.73;;;18.40;99.90;;;;;;5070624;28;20065;-75
2022/10/25 05:36:54;;;;;;;29.00;16.02;;;18.40;99.90;;;;;;5062291;28;20045;-76
2022/10/25 05:39:22;;;;;;;29.50;18.00;;;18.40;99.90;;;;;;5074728;28;20048;-75
2022/10/25 05:41:50;;;;;;;30.80;17.05;;;18.40;99.90;;;;;;5079562;28;20040;-77
2022/10/25 05:44:17;;;;;;;33.35;19.50;;;18.50;99.90;;;;;;5080000;28;20041;-75
2022/10/25 05:46:45;;;;;;;36.33;20.38;;;18.50;99.90;;;;;;5089212;28;20064;-75
2022/10/25 05:49:13;;;;;;;33.80;18.55;;;18.40;99.90;;;;;;5069798;28;20068;-76
2022/10/25 05:51:41;;;;;;;30.17;19.42;;;18.40;99.90;;;;;;5081240;28;20067;-74
2022/10/25 05:54:14;;;;;;;32.10;18.85;;;18.50;99.90;;;;;;5056180;28;20052;-75
2022/10/25 05:56:43;;;;;;;36.05;20.15;;;18.60;99.90;;;;;;5069201;28;20100;-76
2022/10/25 05:59:13;;;;;;;33.45;18.52;;;18.50;99.90;;;;;;5064991;28;20507;-75
2022/10/25 06:01:45;;;;;;;32.10;19.52;;;18.50;99.90;;;;;;5032238;28;20048;-75
2022/10/25 06:04:14;;;;;;;33.42;19.25;;;18.50;99.90;;;;;;5036030;28;20048;-75
2022/10/25 06:06:43;;;;;;;32.33;19.42;;;18.60;99.90;;;;;;5068985;28;20044;-75
2022/10/25 06:09:12;;;;;;;36.58;22.20;;;18.60;99.90;;;;;;5052391;28;20048;-75
2022/10/25 06:11:40;;;;;;;36.63;19.52;;;18.60;99.90;;;;;;5067684;28;20041;-75
2022/10/25 06:14:09;;;;;;;39.25;18.67;;;18.60;99.90;;;;;;5051806;28;20036;-74
2022/10/25 06:16:37;;;;;;;30.63;18.15;;;18.70;99.90;;;;;;5068221;28;20426;-75
2022/10/25 06:19:04;;;;;;;34.33;19.52;;;18.70;99.90;;;;;;5070023;28;20087;-75
2022/10/25 06:21:32;;;;;;;33.10;18.08;;;18.80;99.90;;;;;;5053997;28;20100;-78
2022/10/25 06:24:00;;;;;;;37.53;18.30;;;18.80;99.90;;;;;;5080828;28;20052;-76
2022/10/25 06:26:30;;;;;;;29.13;17.70;;;18.80;99.90;;;;;;5051982;28;20044;-77
2022/10/25 06:29:00;;;;;;;35.78;17.50;;;18.90;99.90;;;;;;5051896;28;20437;-75
2022/10/25 06:31:29;;;;;;;31.48;17.95;;;18.90;99.90;;;;;;5068683;28;20148;-74
2022/10/25 06:34:00;;;;;;;39.22;18.30;;;19.00;99.90;;;;;;5051289;28;20045;-74
2022/10/25 06:36:30;;;;;;;28.98;17.42;;;19.00;99.90;;;;;;5068394;28;20044;-74
2022/10/25 06:39:01;;;;;;;32.60;19.02;;;19.10;99.90;;;;;;5067442;28;20127;-75
2022/10/25 06:41:30;;;;;;;32.58;19.33;;;19.10;99.90;;;;;;5068103;28;20139;-74
2022/10/25 06:43:59;;;;;;;28.58;15.88;;;19.10;99.90;;;;;;5068172;28;20423;-74
2022/10/25 06:46:32;;;;;;;28.67;17.23;;;19.20;99.90;;;;;;5035881;28;20044;-74
2022/10/25 06:49:04;;;;;;;31.05;17.95;;;19.20;99.90;;;;;;5034614;28;20048;-74
2022/10/25 06:51:33;;;;;;;30.50;17.65;;;19.20;99.90;;;;;;5032521;28;20048;-75
2022/10/25 06:54:08;;;;;;;29.67;17.02;;;19.30;99.90;;;;;;5047921;28;20403;-74
2022/10/25 06:56:36;;;;;;;32.05;19.17;;;19.30;99.90;;;;;;5047930;28;20041;-75
2022/10/25 06:59:06;;;;;;;35.50;18.90;;;19.40;99.90;;;;;;5049188;28;20151;-74
2022/10/25 07:01:33;;;;;;;30.45;16.73;;;19.40;99.90;;;;;;5047332;28;20041;-74
2022/10/25 07:04:02;;;;;;;29.80;16.50;;;19.50;99.90;;;;;;5048171;28;20095;-74
2022/10/25 07:06:34;;;;;;;24.65;16.50;;;19.70;99.90;;;;;;5047425;28;20443;-75
2022/10/25 07:09:03;;;;;;;27.70;15.75;;;19.90;99.90;;;;;;5047955;28;20502;-74
2022/10/25 07:11:32;;;;;;;25.23;15.43;;;20.20;99.90;;;;;;5031562;28;20055;-74
2022/10/25 07:14:02;;;;;;;28.35;17.27;;;20.70;99.90;;;;;;5031123;28;20516;-74
2022/10/25 07:16:32;;;;;;;24.77;14.90;;;21.20;99.90;;;;;;5031591;28;20119;-76
2022/10/25 07:19:03;;;;;;;26.75;13.63;;;21.70;99.90;;;;;;5055770;28;20056;-74
2022/10/25 07:21:32;;;;;;;23.55;16.02;;;22.10;99.90;;;;;;5074523;28;20131;-74
2022/10/25 07:24:00;;;;;;;21.90;14.68;;;22.50;99.90;;;;;;5067850;28;20147;-75
2022/10/25 07:26:33;;;;;;;28.33;16.55;;;22.80;99.90;;;;;;5050588;28;20049;-74
2022/10/25 07:29:02;;;;;;;22.15;13.65;;;23.10;99.90;;;;;;5051098;28;20464;-74
2022/10/25 07:31:36;;;;;;;24.92;14.25;;;23.20;99.90;;;;;;5068791;28;20520;-74
2022/10/25 07:34:05;;;;;;;29.33;14.63;;;23.30;99.90;;;;;;5051283;28;20121;-74
2022/10/25 07:36:33;;;;;;;26.42;15.88;;;23.40;99.90;;;;;;5051047;28;20045;-74
2022/10/25 07:39:01;;;;;;;25.05;14.50;;;23.60;99.90;;;;;;5067710;28;20124;-74
2022/10/25 07:41:28;;;;;;;19.92;13.20;;;23.80;99.90;;;;;;5066589;28;20056;-74
2022/10/25 07:43:56;;;;;;;24.50;12.65;;;24.00;99.90;;;;;;5050666;28;20048;-75
2022/10/25 07:46:24;;;;;;;21.60;13.77;;;24.10;99.90;;;;;;5051232;28;20082;-74
2022/10/25 07:48:51;;;;;;;21.25;12.07;;;24.30;99.90;;;;;;5050652;28;20074;-75
2022/10/25 07:51:19;;;;;;;21.33;13.30;;;24.40;99.90;;;;;;5053982;28;20087;-74
2022/10/25 07:53:47;;;;;;;19.55;13.27;;;24.60;99.90;;;;;;5072360;28;20133;-75
2022/10/25 07:56:17;;;;;;;21.05;13.40;;;24.70;99.90;;;;;;5071325;28;20131;-74
2022/10/25 07:58:45;;;;;;;24.80;15.43;;;24.80;99.90;;;;;;5071996;28;20055;-75
2022/10/25 08:01:20;;;;;;;23.27;13.30;;;25.00;99.90;;;;;;5054664;28;20144;-74
2022/10/25 08:03:48;;;;;;;27.40;13.52;;;25.10;99.90;;;;;;5072521;28;20071;-74
2022/10/25 08:06:16;;;;;;;22.38;13.30;;;25.20;99.90;;;;;;5070975;28;20669;-74
2022/10/25 08:08:44;;;;;;;22.33;13.32;;;25.40;99.90;;;;;;5071055;28;20044;-74
2022/10/25 08:11:11;;;;;;;22.45;12.63;;;25.40;99.90;;;;;;5054605;28;20044;-75
2022/10/25 08:13:39;;;;;;;24.27;12.63;;;25.50;99.90;;;;;;5070794;28;20050;-74
2022/10/25 08:16:07;;;;;;;19.92;12.55;;;25.60;99.90;;;;;;5070763;28;20060;-75
2022/10/25 08:18:35;;;;;;;21.17;12.60;;;25.70;99.90;;;;;;5070787;28;20048;-74
2022/10/25 08:21:04;;;;;;;19.95;12.40;;;25.80;99.90;;;;;;5054554;28;20501;-75
2022/10/25 08:23:32;;;;;;;19.25;12.05;;;25.90;99.90;;;;;;5053914;28;20080;-74
2022/10/25 08:26:00;;;;;;;22.38;12.43;;;25.80;99.90;;;;;;5054471;28;20122;-75
2022/10/25 08:28:31;;;;;;;20.48;12.00;;;25.70;99.90;;;;;;5054506;28;20036;-75
2022/10/25 08:31:03;;;;;;;18.60;12.15;;;25.60;99.90;;;;;;5072330;28;20056;-74
2022/10/25 08:33:32;;;;;;;19.58;12.23;;;25.80;99.90;;;;;;5070775;28;20053;-75
2022/10/25 08:36:01;;;;;;;19.02;12.65;;;25.90;99.90;;;;;;5071618;28;20041;-74
2022/10/25 08:38:31;;;;;;;20.83;12.27;;;26.00;99.90;;;;;;5050178;28;20494;-75
2022/10/25 08:41:23;;;;;;;24.02;11.30;;;26.20;99.90;;;;;;5051126;28;20060;-74
2022/10/25 08:44:20;;;;;;;17.67;11.50;;;26.40;99.90;;;;;;5040029;28;20064;-75
2022/10/25 08:47:00;;;;;;;16.90;10.02;;;26.50;99.90;;;;;;5066855;28;20052;-74
2022/10/25 08:50:01;;;;;;;20.00;11.75;;;26.60;99.90;;;;;;5050888;28;20049;-75
2022/10/25 08:52:36;;;;;;;18.02;11.32;;;26.70;99.90;;;;;;5034195;28;20060;-74
2022/10/25 08:55:13;;;;;;;16.70;9.95;;;26.80;99.90;;;;;;5066855;28;20049;-74
2022/10/25 08:57:45;;;;;;;15.57;10.25;;;26.90;99.90;;;;;;5050406;28;20041;-74
2022/10/25 09:00:19;;;;;;;16.35;9.32;;;26.90;99.90;;;;;;5066993;28;20498;-74
2022/10/25 09:02:53;;;;;;;18.63;9.50;;;27.10;99.90;;;;;;5032921;28;20057;-74
2022/10/25 09:05:46;;;;;;;16.73;10.77;;;27.10;99.90;;;;;;5050073;28;20123;-74
2022/10/25 09:09:08;;;;;;;15.32;9.50;;;27.20;99.90;;;;;;5050440;28;20140;-75
2022/10/25 09:11:48;;;;;;;13.23;9.20;;;27.30;99.90;;;;;;4941444;28;20126;-75
2022/10/25 09:14:28;;;;;;;14.63;8.52;;;27.30;99.90;;;;;;4973245;28;20058;-74
2022/10/25 09:17:10;;;;;;;13.52;8.57;;;27.40;99.90;;;;;;5039986;28;20064;-75
2022/10/25 09:20:17;;;;;;;17.30;9.35;;;27.50;99.90;;;;;;5032993;28;20052;-75
2022/10/25 09:22:50;;;;;;;;;;;27.70;99.90;;;;;;5033863;28;20497;-74
2022/10/25 09:25:58;;;;;;;16.85;9.60;;;27.80;99.90;;;;;;5051312;28;20584;-75
2022/10/25 09:28:46;;;;;;;13.15;8.38;;;27.90;99.90;;;;;;5011528;28;20091;-74
2022/10/25 09:31:18;;;;;;;13.38;8.90;;;28.10;99.90;;;;;;5066628;28;20791;-75
2022/10/25 09:33:48;;;;;;;16.13;8.10;;;28.00;99.90;;;;;;5066222;28;20427;-75
2022/10/25 09:36:16;;;;;;;10.25;7.97;;;28.10;99.90;;;;;;5020819;28;20049;-75
2022/10/25 09:38:50;;;;;;;11.82;7.50;;;28.10;99.90;;;;;;5049705;28;20181;-74
2022/10/25 09:41:39;;;;;;;11.90;7.72;;;28.10;99.90;;;;;;5049923;28;20134;-75
2022/10/25 09:44:31;;;;;;;13.75;8.02;;;28.20;99.90;;;;;;5033402;28;20114;-74
2022/10/25 09:47:17;;;;;;;12.25;7.93;;;28.30;99.90;;;;;;5049806;28;20203;-75
2022/10/25 09:49:57;;;;;;;12.80;8.05;;;28.00;99.90;;;;;;5049409;28;20139;-74
2022/10/25 09:52:46;;;;;;;14.55;9.32;;;28.00;99.90;;;;;;5049660;28;20040;-74
2022/10/25 09:55:30;;;;;;;14.75;7.55;;;28.00;99.90;;;;;;5048515;28;20428;-74
2022/10/25 09:57:58;;;;;;;10.32;7.28;;;27.90;99.90;;;;;;5032995;28;20121;-75
2022/10/25 10:00:26;;;;;;;13.77;7.18;;;27.90;99.90;;;;;;5015820;28;20049;-76
2022/10/25 10:02:55;;;;;;;17.55;7.82;;;28.00;99.90;;;;;;5057584;28;20051;-76
2022/10/25 10:05:22;;;;;;;11.18;6.18;;;27.90;99.90;;;;;;5056425;28;20064;-75
2022/10/25 10:07:50;;;;;;;12.70;8.77;;;28.00;99.90;;;;;;5058317;28;20037;-75
2022/10/25 10:10:22;;;;;;;28.75;11.50;;;28.10;99.90;;;;;;5069039;28;20132;-75
2022/10/25 10:12:56;;;;;;;11.70;7.10;;;28.10;99.90;;;;;;5056128;28;20075;-76
2022/10/25 10:15:35;;;;;;;19.33;7.75;;;28.20;99.90;;;;;;5053983;28;20400;-73
2022/10/25 10:18:24;;;;;;;10.73;6.07;;;28.00;99.90;;;;;;5034263;28;20073;-75
2022/10/25 10:21:14;;;;;;;9.50;7.03;;;28.00;99.90;;;;;;5069153;28;20135;-73
2022/10/25 10:23:58;;;;;;;11.48;6.50;;;28.00;99.90;;;;;;5050474;28;20445;-74
2022/10/25 10:26:32;;;;;;;9.95;6.15;;;28.00;99.90;;;;;;5045883;28;20076;-74
2022/10/25 10:29:27;;;;;;;12.48;6.85;;;27.90;99.90;;;;;;5053037;28;20044;-74
2022/10/25 10:31:59;;;;;;;30.33;14.63;;;28.00;99.90;;;;;;5047267;28;20067;-74
2022/10/25 10:34:37;;;;;;;13.85;7.32;;;27.90;99.90;;;;;;5050803;28;20063;-74
2022/10/25 10:37:11;;;;;;;15.13;7.47;;;27.90;99.90;;;;;;5038555;28;20378;-75
2022/10/25 10:39:52;;;;;;;14.40;8.50;;;27.90;99.90;;;;;;5059882;28;20040;-74
2022/10/25 10:42:32;;;;;;;13.85;8.02;;;27.90;99.90;;;;;;5040812;28;20041;-74
2022/10/25 10:45:00;;;;;;;14.70;8.85;;;27.80;99.90;;;;;;5053346;28;20069;-74
2022/10/25 10:47:48;;;;;;;14.27;8.27;;;27.90;99.90;;;;;;5049745;28;20044;-74
2022/10/25 10:50:23;;;;;;;16.45;8.60;;;27.80;99.90;;;;;;5035057;28;20076;-75
2022/10/25 10:53:16;;;;;;;12.70;7.35;;;27.80;99.90;;;;;;5051735;28;20037;-75
2022/10/25 10:55:50;;;;;;;10.82;6.40;;;27.80;99.90;;;;;;5032901;28;20411;-74
2022/10/25 10:58:25;;;;;;;13.95;6.80;;;27.90;99.90;;;;;;5038356;28;20069;-74
2022/10/25 11:01:05;;;;;;;12.80;6.88;;;27.90;99.90;;;;;;5047883;28;20517;-75
2022/10/25 11:03:42;;;;;;;11.15;6.90;;;28.00;99.90;;;;;;5053346;28;20094;-75
2022/10/25 11:06:30;;;;;;;19.33;8.63;;;28.10;99.90;;;;;;5029411;28;20088;-75
2022/10/25 11:09:19;;;;;;;15.40;7.75;;;28.10;99.90;;;;;;5063800;28;20064;-74
2022/10/25 11:12:09;;;;;;;11.57;7.40;;;28.20;99.90;;;;;;5043650;28;20090;-74
2022/10/25 11:14:37;;;;;;;13.32;9.63;;;28.10;99.90;;;;;;5053198;28;20048;-75
2022/10/25 11:17:13;;;;;;;18.88;8.70;;;28.10;99.90;;;;;;5036173;28;20549;-75
2022/10/25 11:19:56;;;;;;;14.73;8.30;;;28.00;99.90;;;;;;5058934;28;20140;-75
2022/10/25 11:22:26;;;;;;;14.88;7.97;;;28.00;99.90;;;;;;5052016;28;20098;-75
2022/10/25 11:25:04;;;;;;;13.30;9.43;;;28.00;99.90;;;;;;5037261;28;20156;-74
2022/10/25 11:27:59;;;;;;;14.95;8.45;;;28.00;99.90;;;;;;5043035;28;20045;-75
2022/10/25 11:30:58;;;;;;;14.45;7.63;;;28.00;99.90;;;;;;5037099;28;20534;-73
2022/10/25 11:34:02;;;;;;;12.30;8.05;;;28.10;99.90;;;;;;5047647;28;20053;-73
2022/10/25 11:36:37;;;;;;;11.40;6.68;;;28.10;99.90;;;;;;5067242;28;20472;-74
2022/10/25 11:39:14;;;;;;;11.05;6.95;;;28.10;99.90;;;;;;5033720;28;20071;-74
2022/10/25 11:41:47;;;;;;;15.30;7.53;;;28.10;99.90;;;;;;5052365;28;20057;-74
2022/10/25 11:44:53;;;;;;;12.75;7.40;;;27.90;99.90;;;;;;5048111;28;20041;-75
2022/10/25 11:47:30;;;;;;;15.80;6.63;;;27.90;99.90;;;;;;5048964;28;20503;-74
2022/10/25 11:50:13;;;;;;;10.13;6.13;;;28.00;99.70;;;;;;5049156;28;20045;-74
2022/10/25 11:53:18;;;;;;;10.57;5.32;;;27.90;99.00;;;;;;5031499;28;20151;-73
2022/10/25 11:55:50;;;;;;;11.00;7.20;;;27.90;98.70;;;;;;5047506;28;20499;-74
2022/10/25 11:59:02;;;;;;;11.23;5.78;;;27.80;98.20;;;;;;5031175;28;20051;-74
2022/10/25 12:01:59;;;;;;;8.25;4.63;;;27.80;97.50;;;;;;5047917;28;20558;-74
2022/10/25 12:04:43;;;;;;;7.40;4.40;;;27.80;97.20;;;;;;5025054;28;20057;-73
2022/10/25 12:07:26;;;;;;;10.00;4.88;;;27.80;97.00;;;;;;5047780;28;20045;-74
2022/10/25 12:10:12;;;;;;;9.35;5.50;;;27.70;97.00;;;;;;5047414;28;20057;-74
2022/10/25 12:12:51;;;;;;;;;;;27.70;96.90;;;;;;5047941;28;20514;-73
2022/10/25 12:15:26;;;;;;;11.18;5.07;;;27.60;97.10;;;;;;5064117;28;20383;-73
2022/10/25 12:17:54;;;;;;;7.18;5.47;;;27.50;97.00;;;;;;5050830;28;20437;-74
2022/10/25 12:20:26;;;;;;;8.88;5.75;;;27.50;97.10;;;;;;5067392;28;20044;-73
2022/10/25 12:23:00;;;;;;;10.20;5.43;;;27.60;96.70;;;;;;5068572;28;20044;-73
2022/10/25 12:25:49;;;;;;;12.20;7.82;;;27.50;96.50;;;;;;5033521;28;20079;-74
2022/10/25 12:28:41;;;;;;;14.90;8.35;;;27.50;96.80;;;;;;5067764;28;20493;-74
2022/10/25 12:31:35;;;;;;;14.70;5.60;;;27.50;97.00;;;;;;5066118;28;20048;-73
2022/10/25 12:34:14;;;;;;;9.70;6.03;;;27.50;96.30;;;;;;5054563;28;20261;-73
2022/10/25 12:36:55;;;;;;;14.45;6.05;;;27.30;96.40;;;;;;5031042;28;20073;-73
2022/10/25 12:39:40;;;;;;;9.10;5.72;;;27.40;96.10;;;;;;5051232;28;20065;-74
2022/10/25 12:42:31;;;;;;;11.50;5.88;;;27.40;96.10;;;;;;5034435;28;20064;-73
2022/10/25 12:45:34;;;;;;;13.63;5.60;;;27.30;96.10;;;;;;5018106;28;20045;-74
2022/10/25 12:48:46;;;;;;;18.88;6.55;;;27.20;95.80;;;;;;5051094;28;20445;-72
2022/10/25 12:51:33;;;;;;;17.52;8.82;;;27.20;95.80;;;;;;5021563;28;20048;-72
2022/10/25 12:54:49;;;;;;;15.60;7.85;;;27.20;96.80;;;;;;5050837;28;20076;-72
2022/10/25 12:57:38;;;;;;;14.38;7.47;;;27.10;96.10;;;;;;5034057;28;20099;-73
2022/10/25 13:00:16;;;;;;;17.50;7.50;;;26.90;96.50;;;;;;5050439;28;20136;-74
2022/10/25 13:03:09;;;;;;;10.25;6.20;;;26.90;96.90;;;;;;5088177;28;20040;-73
2022/10/25 13:05:58;;;;;;;14.07;5.88;;;26.90;96.70;;;;;;5085289;28;20044;-73
2022/10/25 13:08:28;;;;;;;10.48;6.05;;;26.60;96.60;;;;;;5076273;28;20044;-74
2022/10/25 13:10:59;;;;;;;13.65;5.25;;;26.50;96.90;;;;;;5059396;28;20505;-73